Terminal Aerodrome Forecast
Issued by NWS

Home | Current Version | Previous Version | Text Only | Print | Product List | Glossary Off
Versions: 1 2 3 4 5 6 7 8 9 10 11 12 13

000
FTUS45 KGGW 201720
TAFSDY
TAF
KSDY 201720Z 2018/2118 18010KT P6SM FEW200
     FM210300 29013KT P6SM SCT160
     FM210500 27020G30KT P6SM BKN070
     FM211000 26016G24KT P6SM SCT080=

USA.gov is the U.S. government's official web portal to all federal, state and local government web resources and services.